createdAt,value
2019-04-14T00:02:07.370Z,28.07
2019-04-14T00:04:44.433Z,28.10
2019-04-14T00:07:16.960Z,25.10
2019-04-14T00:09:48.474Z,27.82
2019-04-14T00:12:20.853Z,25.02
2019-04-14T00:14:53.293Z,27.22
2019-04-14T00:17:26.231Z,30.72
2019-04-14T00:19:58.828Z,27.27
2019-04-14T00:22:30.997Z,26.77
2019-04-14T00:25:04.355Z,31.57
2019-04-14T00:27:36.706Z,32.20
2019-04-14T00:30:09.713Z,28.65
2019-04-14T00:32:50.861Z,27.87
2019-04-14T00:35:29.896Z,25.25
2019-04-14T00:38:17.451Z,24.80
2019-04-14T00:41:37.117Z,26.73
2019-04-14T00:44:17.431Z,27.30
2019-04-14T00:46:53.778Z,27.42
2019-04-14T00:49:26.866Z,23.55
2019-04-14T00:51:59.309Z,23.70
2019-04-14T00:54:30.983Z,29.05
2019-04-14T00:57:03.147Z,22.87
2019-04-14T00:59:35.471Z,23.57
2019-04-14T01:02:07.753Z,27.85
2019-04-14T01:04:40.415Z,27.25
2019-04-14T01:07:13.094Z,25.23
2019-04-14T01:09:44.915Z,24.15
2019-04-14T01:12:17.187Z,25.15
2019-04-14T01:14:49.465Z,24.60
2019-04-14T01:17:22.030Z,24.70
2019-04-14T01:19:54.895Z,24.80
2019-04-14T01:22:27.102Z,23.22
2019-04-14T01:24:59.974Z,25.52
2019-04-14T01:27:32.021Z,27.37
2019-04-14T01:30:04.553Z,24.10
2019-04-14T01:32:37.161Z,24.70
2019-04-14T01:35:09.657Z,27.55
2019-04-14T01:37:41.919Z,26.17
2019-04-14T01:40:14.212Z,26.30
2019-04-14T01:42:46.356Z,24.47
2019-04-14T01:45:19.426Z,26.07
2019-04-14T01:47:51.157Z,26.42
2019-04-14T01:50:30.764Z,25.35
2019-04-14T01:53:11.834Z,23.35
2019-04-14T01:56:05.925Z,23.12
2019-04-14T01:58:46.891Z,25.52
2019-04-14T02:01:23.774Z,25.48
2019-04-14T02:03:56.297Z,26.02
2019-04-14T02:06:28.783Z,23.77
2019-04-14T02:09:01.162Z,25.32
2019-04-14T02:11:35.582Z,25.10
2019-04-14T02:14:08.250Z,22.82
2019-04-14T02:16:47.381Z,24.52
2019-04-14T02:19:15.242Z,22.55
2019-04-14T02:21:47.813Z,25.23
2019-04-14T02:24:20.009Z,27.87
2019-04-14T02:26:52.599Z,27.05
2019-04-14T02:29:25.416Z,26.90
2019-04-14T02:32:29.993Z,23.05
2019-04-14T02:34:57.116Z,25.97
2019-04-14T02:37:34.713Z,24.00
2019-04-14T02:45:10.287Z,25.85
2019-04-14T02:48:12.010Z,22.42
2019-04-14T02:50:17.146Z,22.98
2019-04-14T02:52:52.056Z,23.45
2019-04-14T02:55:21.594Z,21.07
2019-04-14T02:58:04.386Z,23.07
2019-04-14T03:00:47.926Z,23.98
2019-04-14T03:03:10.539Z,22.13
2019-04-14T03:05:44.714Z,21.87
2019-04-14T03:08:18.770Z,24.47
2019-04-14T03:10:49.771Z,22.98
2019-04-14T03:13:21.271Z,25.85
2019-04-14T03:22:06.334Z,23.40
2019-04-14T03:24:31.728Z,21.12
2019-04-14T03:27:17.652Z,19.27
2019-04-14T03:29:55.355Z,22.35
2019-04-14T03:32:38.586Z,24.72
2019-04-14T03:35:13.193Z,20.77
2019-04-14T03:40:00.699Z,20.27
2019-04-14T03:45:03.647Z,21.82
2019-04-14T03:47:57.985Z,24.40
2019-04-14T03:50:18.949Z,22.75
2019-04-14T03:53:08.127Z,22.17
2019-04-14T03:55:15.148Z,23.30
2019-04-14T03:57:30.971Z,24.02
2019-04-14T04:00:03.192Z,23.87
2019-04-14T04:02:35.821Z,23.32
2019-04-14T04:05:08.571Z,24.75
2019-04-14T04:07:41.116Z,26.45
2019-04-14T04:10:17.886Z,23.83
2019-04-14T04:12:49.551Z,25.50
2019-04-14T04:15:21.465Z,25.00
2019-04-14T04:18:04.902Z,27.00
2019-04-14T04:20:54.511Z,26.62
2019-04-14T04:23:33.494Z,28.25
2019-04-14T04:26:36.580Z,24.72
2019-04-14T04:29:12.231Z,25.62
2019-04-14T04:31:56.839Z,26.10
2019-04-14T04:34:33.947Z,26.87
2019-04-14T04:37:12.975Z,24.98
2019-04-14T04:39:45.759Z,23.98
2019-04-14T04:42:17.730Z,20.60
2019-04-14T04:44:49.482Z,22.10
2019-04-14T04:47:21.113Z,23.25
2019-04-14T04:49:53.245Z,26.65
2019-04-14T04:52:24.411Z,20.80
2019-04-14T04:54:55.987Z,22.30
2019-04-14T04:57:28.513Z,21.10
2019-04-14T05:00:00.841Z,20.85
2019-04-14T05:02:33.164Z,21.07
2019-04-14T05:05:06.348Z,19.85
2019-04-14T05:07:38.350Z,21.42
2019-04-14T05:10:35.047Z,22.85
2019-04-14T05:13:20.923Z,21.30
2019-04-14T05:15:57.883Z,22.65
2019-04-14T05:18:29.384Z,19.23
2019-04-14T05:21:01.767Z,20.27
2019-04-14T05:23:34.250Z,19.77
2019-04-14T05:26:07.082Z,17.80
2019-04-14T05:28:39.613Z,18.45
2019-04-14T05:31:12.172Z,22.40
2019-04-14T05:33:44.687Z,21.73
2019-04-14T05:36:17.172Z,27.75
2019-04-14T05:38:49.563Z,22.95
2019-04-14T05:41:22.278Z,20.23
2019-04-14T05:43:58.414Z,21.17
2019-04-14T05:46:29.618Z,19.07
2019-04-14T05:49:02.098Z,18.70
2019-04-14T05:51:35.071Z,18.73
2019-04-14T05:54:07.714Z,19.75
2019-04-14T05:56:40.731Z,18.27
2019-04-14T05:59:13.495Z,16.48
2019-04-14T06:01:44.851Z,15.65
2019-04-14T06:04:15.919Z,18.02
2019-04-14T06:06:47.823Z,16.97
2019-04-14T06:09:19.375Z,22.50
2019-04-14T06:11:51.143Z,22.85
2019-04-14T06:14:23.030Z,19.85
2019-04-14T06:16:54.275Z,18.52
2019-04-14T06:19:36.382Z,18.32
2019-04-14T06:21:59.327Z,16.42
2019-04-14T06:24:31.185Z,19.35
2019-04-14T06:27:02.227Z,20.82
2019-04-14T06:29:34.095Z,20.25
2019-04-14T06:32:24.335Z,19.35
2019-04-14T06:35:23.757Z,16.55
2019-04-14T06:38:17.653Z,19.82
2019-04-14T06:40:54.045Z,16.20
2019-04-14T06:43:25.373Z,16.62
2019-04-14T06:45:56.668Z,16.65
2019-04-14T06:48:28.368Z,16.32
2019-04-14T06:51:00.119Z,17.27
2019-04-14T06:53:31.642Z,17.77
2019-04-14T06:56:02.940Z,15.63
2019-04-14T06:58:35.789Z,17.77
2019-04-14T07:01:07.053Z,17.05
2019-04-14T07:03:38.359Z,17.45
2019-04-14T07:06:09.630Z,18.65
2019-04-14T07:08:41.535Z,17.73
2019-04-14T07:11:13.166Z,17.00
2019-04-14T07:13:47.846Z,16.45
2019-04-14T07:16:19.610Z,17.02
2019-04-14T07:18:51.504Z,15.18
2019-04-14T07:21:22.781Z,16.97
2019-04-14T07:23:54.020Z,17.20
2019-04-14T07:26:26.044Z,18.30
2019-04-14T07:28:57.814Z,17.85
2019-04-14T07:31:50.918Z,18.67
2019-04-14T07:34:47.226Z,18.25
2019-04-14T07:37:34.229Z,16.37
2019-04-14T07:40:32.607Z,20.60
2019-04-14T07:43:15.042Z,20.77
2019-04-14T07:46:09.254Z,15.95
2019-04-14T07:48:50.495Z,17.85
2019-04-14T07:51:45.124Z,17.37
2019-04-14T07:54:24.141Z,21.65
2019-04-14T07:57:23.531Z,17.10
2019-04-14T08:00:12.346Z,19.67
2019-04-14T08:02:54.949Z,17.85
2019-04-14T08:05:30.510Z,19.67
2019-04-14T08:08:01.754Z,24.12
2019-04-14T08:10:33.658Z,20.30
2019-04-14T08:13:04.762Z,20.12
2019-04-14T08:15:36.321Z,25.80
2019-04-14T08:18:08.171Z,19.92
2019-04-14T08:20:39.715Z,33.28
2019-04-14T08:23:11.076Z,22.82
2019-04-14T08:25:42.708Z,22.50
2019-04-14T08:28:13.969Z,19.12
2019-04-14T08:30:45.833Z,18.92
2019-04-14T08:33:17.410Z,19.48
2019-04-14T08:35:49.105Z,19.12
2019-04-14T08:38:20.476Z,20.82
2019-04-14T08:40:52.023Z,16.45
2019-04-14T08:43:39.152Z,17.62
2019-04-14T08:46:30.062Z,17.92
2019-04-14T08:49:10.359Z,19.02
2019-04-14T08:51:56.854Z,22.95
2019-04-14T08:54:47.356Z,20.15
2019-04-14T08:57:37.860Z,17.57
2019-04-14T09:00:16.045Z,20.25
2019-04-14T09:03:21.423Z,21.00
2019-04-14T09:06:01.658Z,19.25
2019-04-14T09:08:47.621Z,21.05
2019-04-14T09:11:23.636Z,22.50
2019-04-14T09:13:55.232Z,22.20
2019-04-14T09:16:26.551Z,20.30
2019-04-14T09:19:07.096Z,21.68
2019-04-14T09:21:32.255Z,20.55
2019-04-14T09:24:03.536Z,24.25
2019-04-14T09:26:35.108Z,23.25
2019-04-14T09:29:07.111Z,25.95
2019-04-14T09:31:38.732Z,27.05
2019-04-14T09:34:09.972Z,23.12
2019-04-14T09:36:41.513Z,24.02
2019-04-14T09:39:12.626Z,22.85
2019-04-14T09:41:44.613Z,27.37
2019-04-14T09:44:15.939Z,29.30
2019-04-14T09:46:47.518Z,26.35
2019-04-14T09:49:19.085Z,25.82
2019-04-14T09:51:50.492Z,28.50
2019-04-14T09:54:22.440Z,30.15
2019-04-14T09:56:53.925Z,31.25
2019-04-14T09:59:25.947Z,27.65
2019-04-14T10:01:57.317Z,27.95
2019-04-14T10:04:28.685Z,26.35
2019-04-14T10:07:00.282Z,26.65
2019-04-14T10:09:32.732Z,29.57
2019-04-14T10:12:03.835Z,26.30
2019-04-14T10:14:35.792Z,27.55
2019-04-14T10:17:07.821Z,28.92
2019-04-14T10:19:39.139Z,26.82
2019-04-14T10:22:10.412Z,33.70
2019-04-14T10:24:42.194Z,39.60
2019-04-14T10:27:14.032Z,28.90
2019-04-14T10:29:45.914Z,28.00
2019-04-14T10:32:17.248Z,27.37
2019-04-14T10:34:48.889Z,24.87
2019-04-14T10:37:20.454Z,25.60
2019-04-14T10:39:51.792Z,25.45
2019-04-14T10:42:23.969Z,23.77
2019-04-14T10:44:55.787Z,25.10
2019-04-14T10:47:27.088Z,27.17
2019-04-14T10:49:58.405Z,25.80
2019-04-14T10:52:29.665Z,27.17
2019-04-14T10:55:00.678Z,24.37
2019-04-14T10:57:32.312Z,24.98
2019-04-14T11:00:05.083Z,24.43
2019-04-14T11:02:37.432Z,23.25
2019-04-14T11:05:09.044Z,26.20
2019-04-14T11:07:41.023Z,24.92
2019-04-14T11:10:13.202Z,25.50
2019-04-14T11:12:44.809Z,22.70
2019-04-14T11:15:16.288Z,22.65
2019-04-14T11:17:48.622Z,23.22
2019-04-14T11:20:20.188Z,24.80
2019-04-14T11:23:02.805Z,23.50
2019-04-14T11:25:24.477Z,23.95
2019-04-14T11:27:56.628Z,19.98
2019-04-14T11:30:28.546Z,16.82
2019-04-14T11:33:14.450Z,18.57
2019-04-14T11:36:03.350Z,15.10
2019-04-14T11:38:38.038Z,13.15
2019-04-14T11:41:14.115Z,12.33
2019-04-14T11:43:45.923Z,11.83
2019-04-14T11:46:17.573Z,13.22
2019-04-14T11:48:48.913Z,13.18
2019-04-14T11:51:19.939Z,12.95
2019-04-14T11:53:51.780Z,12.37
2019-04-14T11:56:23.113Z,14.05
2019-04-14T11:58:54.115Z,11.35
2019-04-14T12:01:44.841Z,11.48
2019-04-14T12:04:41.850Z,10.32
2019-04-14T12:07:20.752Z,10.88
2019-04-14T12:09:57.955Z,11.57
2019-04-14T12:12:29.321Z,11.68
2019-04-14T12:15:01.012Z,13.53
2019-04-14T12:17:33.292Z,11.80
2019-04-14T12:20:06.232Z,9.68
2019-04-14T12:22:37.568Z,9.50
2019-04-14T12:25:09.552Z,9.25
2019-04-14T12:27:42.029Z,8.83
2019-04-14T12:30:13.764Z,11.75
2019-04-14T12:32:45.644Z,13.10
2019-04-14T12:35:17.094Z,11.12
2019-04-14T12:37:49.091Z,10.03
2019-04-14T12:40:21.356Z,9.40
2019-04-14T12:42:59.218Z,10.32
2019-04-14T12:45:55.590Z,14.13
2019-04-14T12:48:36.560Z,16.97
2019-04-14T12:51:21.198Z,13.72
2019-04-14T12:53:52.205Z,15.05
2019-04-14T12:56:26.375Z,10.68
2019-04-14T12:59:16.766Z,12.60
2019-04-14T13:02:07.527Z,10.32
2019-04-14T13:04:39.154Z,8.30
2019-04-14T13:07:11.166Z,11.80
2019-04-14T13:09:44.077Z,10.88
2019-04-14T13:12:16.030Z,11.35
2019-04-14T13:14:47.112Z,11.75
2019-04-14T13:17:18.531Z,11.00
2019-04-14T13:19:49.909Z,10.18
2019-04-14T13:22:32.986Z,11.53
2019-04-14T13:24:54.279Z,12.98
2019-04-14T13:27:25.871Z,10.85
2019-04-14T13:29:57.780Z,13.62
2019-04-14T13:32:35.955Z,12.68
2019-04-14T13:35:01.512Z,10.50
2019-04-14T13:37:33.475Z,11.00
2019-04-14T13:40:05.095Z,11.10
2019-04-14T13:42:36.882Z,12.78
2019-04-14T13:45:08.944Z,9.80
2019-04-14T13:47:40.596Z,11.65
2019-04-14T13:50:12.824Z,10.98
2019-04-14T13:52:47.196Z,12.00
2019-04-14T13:55:17.224Z,10.48
2019-04-14T13:57:48.979Z,12.30
2019-04-14T14:00:21.259Z,14.63
2019-04-14T14:02:53.441Z,13.50
2019-04-14T14:05:25.044Z,12.13
2019-04-14T14:07:56.724Z,11.25
2019-04-14T14:10:29.134Z,10.80
2019-04-14T14:13:25.446Z,11.95
2019-04-14T14:16:16.311Z,11.85
2019-04-14T14:18:57.866Z,12.45
2019-04-14T14:21:35.280Z,13.40
2019-04-14T14:24:24.309Z,12.93
2019-04-14T14:26:56.417Z,13.20
2019-04-14T14:29:27.831Z,13.35
2019-04-14T14:31:59.671Z,11.55
2019-04-14T14:34:31.368Z,15.45
2019-04-14T14:37:02.389Z,12.33
2019-04-14T14:39:34.385Z,14.87
2019-04-14T14:42:06.066Z,13.83
2019-04-14T14:44:42.298Z,13.62
2019-04-14T14:47:22.650Z,14.03
2019-04-14T14:50:12.979Z,14.53
2019-04-14T14:52:44.354Z,16.48
2019-04-14T14:55:15.863Z,16.90
2019-04-14T14:57:47.778Z,17.17
2019-04-14T15:00:29.054Z,16.75
2019-04-14T15:03:00.715Z,19.00
2019-04-14T15:05:32.051Z,17.48
2019-04-14T15:08:03.723Z,19.50
2019-04-14T15:10:34.944Z,19.05
2019-04-14T15:13:06.243Z,20.17
2019-04-14T15:15:37.509Z,20.15
2019-04-14T15:18:09.123Z,22.32
2019-04-14T15:20:40.714Z,20.77
2019-04-14T15:23:24.391Z,22.00
2019-04-14T15:25:46.350Z,20.68
2019-04-14T15:28:17.814Z,20.52
2019-04-14T15:30:49.180Z,19.87
2019-04-14T15:33:21.069Z,19.73
2019-04-14T15:35:52.385Z,21.05
2019-04-14T15:38:24.051Z,22.93
2019-04-14T15:40:55.404Z,22.65
2019-04-14T15:43:27.293Z,23.67
2019-04-14T15:45:59.096Z,22.80
2019-04-14T15:48:30.713Z,21.93
2019-04-14T15:51:02.034Z,21.05
2019-04-14T15:53:38.273Z,23.80
2019-04-14T15:56:06.884Z,21.35
2019-04-14T15:58:46.448Z,25.37
2019-04-14T16:01:37.333Z,22.27
2019-04-14T16:04:19.232Z,27.32
2019-04-14T16:07:19.263Z,26.35
2019-04-14T16:10:07.056Z,26.05
2019-04-14T16:12:46.414Z,26.68
2019-04-14T16:15:24.215Z,24.75
2019-04-14T16:18:30.385Z,24.92
2019-04-14T16:21:02.030Z,23.95
2019-04-14T16:23:33.095Z,25.25
2019-04-14T16:26:09.077Z,25.77
2019-04-14T16:29:04.950Z,22.75
2019-04-14T16:31:54.939Z,26.35
2019-04-14T16:34:29.487Z,25.70
2019-04-14T16:37:00.998Z,25.43
2019-04-14T16:39:32.568Z,26.35
2019-04-14T16:42:03.682Z,35.08
2019-04-14T16:44:35.378Z,36.88
2019-04-14T16:47:06.701Z,31.20
2019-04-14T16:49:38.613Z,34.48
2019-04-14T16:52:25.683Z,36.98
2019-04-14T16:55:13.007Z,33.33
2019-04-14T16:58:03.330Z,38.05
2019-04-14T17:00:38.131Z,36.65
2019-04-14T17:03:10.196Z,31.82
2019-04-14T17:05:41.850Z,32.00
2019-04-14T17:08:13.805Z,38.02
2019-04-14T17:10:45.363Z,37.15
2019-04-14T17:13:16.352Z,37.15
2019-04-14T17:15:59.416Z,36.95
2019-04-14T17:18:48.794Z,35.00
2019-04-14T17:21:39.169Z,38.35
2019-04-14T17:24:19.414Z,38.58
2019-04-14T17:26:54.816Z,35.55
2019-04-14T17:29:37.805Z,38.23
2019-04-14T17:32:39.668Z,46.42
2019-04-14T17:35:19.171Z,45.10
2019-04-14T17:38:09.296Z,42.38
2019-04-14T17:41:02.039Z,52.00
2019-04-14T17:43:38.024Z,49.42
2019-04-14T17:46:27.579Z,45.83
2019-04-14T17:49:26.964Z,46.45
2019-04-14T17:52:16.444Z,44.35
2019-04-14T17:54:58.364Z,45.70
2019-04-14T17:57:48.331Z,42.27
2019-04-14T18:00:34.988Z,47.58
2019-04-14T18:03:11.541Z,51.18
2019-04-14T18:05:50.688Z,45.98
2019-04-14T18:08:38.163Z,41.20
2019-04-14T18:11:27.283Z,37.95
2019-04-14T18:14:13.318Z,43.75
2019-04-14T18:17:05.663Z,43.13
2019-04-14T18:19:49.431Z,39.10
2019-04-14T18:22:20.745Z,43.78
2019-04-14T18:24:52.170Z,43.55
2019-04-14T18:27:23.506Z,42.35
2019-04-14T18:30:12.646Z,43.98
2019-04-14T18:33:03.408Z,38.75
2019-04-14T18:35:56.404Z,41.77
2019-04-14T18:38:55.070Z,44.90
2019-04-14T18:41:37.397Z,53.63
2019-04-14T18:44:40.762Z,51.08
2019-04-14T18:47:37.091Z,43.45
2019-04-14T18:50:14.931Z,47.88
2019-04-14T18:52:57.120Z,45.75
2019-04-14T18:55:56.463Z,42.73
2019-04-14T18:58:45.968Z,41.45
2019-04-14T19:01:19.283Z,43.23
2019-04-14T19:03:50.913Z,43.58
2019-04-14T19:06:22.251Z,38.23
2019-04-14T19:08:54.572Z,38.98
2019-04-14T19:11:43.795Z,39.70
2019-04-14T19:14:19.902Z,37.60
2019-04-14T19:16:57.095Z,38.67
2019-04-14T19:19:28.711Z,36.88
2019-04-14T19:22:00.607Z,38.60
2019-04-14T19:24:31.625Z,38.00
2019-04-14T19:27:02.952Z,41.00
2019-04-14T19:29:34.800Z,43.00
2019-04-14T19:32:06.858Z,49.33
2019-04-14T19:34:38.384Z,47.17
2019-04-14T19:37:10.409Z,43.00
2019-04-14T19:39:42.446Z,42.38
2019-04-14T19:42:13.921Z,43.52
2019-04-14T19:44:45.261Z,41.40
2019-04-14T19:47:17.578Z,44.03
2019-04-14T19:49:49.158Z,43.65
2019-04-14T19:52:20.764Z,42.27
2019-04-14T19:54:52.378Z,41.02
2019-04-14T19:57:23.752Z,47.03
2019-04-14T19:59:55.581Z,48.00
2019-04-14T20:02:27.438Z,42.88
2019-04-14T20:04:58.787Z,39.63
2019-04-14T20:07:30.400Z,46.42
2019-04-14T20:10:02.489Z,46.60
2019-04-14T20:12:33.938Z,43.45
2019-04-14T20:15:05.699Z,40.67
2019-04-14T20:17:47.484Z,40.92
2019-04-14T20:20:43.956Z,37.85
2019-04-14T20:23:25.935Z,35.68
2019-04-14T20:26:14.862Z,41.80
2019-04-14T20:28:49.211Z,40.17
2019-04-14T20:31:28.247Z,41.02
2019-04-14T20:34:03.264Z,38.85
2019-04-14T20:36:34.372Z,43.85
2019-04-14T20:39:10.750Z,41.85
2019-04-14T20:41:43.886Z,55.33
2019-04-14T20:44:16.004Z,57.35
2019-04-14T20:46:47.636Z,56.83
2019-04-14T20:49:18.975Z,55.33
2019-04-14T20:51:50.671Z,52.40
2019-04-14T20:54:22.933Z,54.35
2019-04-14T20:56:54.350Z,57.10
2019-04-14T20:59:25.923Z,52.67
2019-04-14T21:02:05.673Z,51.30
2019-04-14T21:04:53.001Z,46.58
2019-04-14T21:07:46.676Z,43.30
2019-04-14T21:10:22.460Z,40.08
2019-04-14T21:12:59.809Z,44.88
2019-04-14T21:15:45.530Z,40.43
2019-04-14T21:18:25.667Z,42.75
2019-04-14T21:21:14.818Z,41.23
2019-04-14T21:24:04.754Z,41.35
2019-04-14T21:26:56.465Z,42.43
2019-04-14T21:29:46.713Z,42.53
2019-04-14T21:32:27.215Z,44.03
2019-04-14T21:35:15.525Z,43.75
2019-04-14T21:38:08.886Z,43.55
2019-04-14T21:40:48.460Z,41.77
2019-04-14T21:43:20.334Z,40.70
2019-04-14T21:45:51.703Z,44.88
2019-04-14T21:48:24.406Z,45.75
2019-04-14T21:50:56.082Z,45.17
2019-04-14T21:53:27.782Z,50.88
2019-04-14T21:55:59.172Z,54.63
2019-04-14T21:58:53.024Z,48.90
2019-04-14T22:01:55.496Z,46.75
2019-04-14T22:04:39.468Z,46.85
2019-04-14T22:07:20.842Z,43.50
2019-04-14T22:09:53.116Z,42.05
2019-04-14T22:12:24.873Z,41.60
2019-04-14T22:14:56.941Z,39.40
2019-04-14T22:17:28.742Z,36.63
2019-04-14T22:20:00.616Z,39.27
2019-04-14T22:22:31.922Z,41.90
2019-04-14T22:25:03.297Z,39.58
2019-04-14T22:27:35.216Z,40.95
2019-04-14T22:30:09.804Z,39.35
2019-04-14T22:32:41.701Z,38.83
2019-04-14T22:35:13.657Z,35.48
2019-04-14T22:37:45.003Z,36.42
2019-04-14T22:40:16.924Z,37.70
2019-04-14T22:42:48.392Z,36.85
2019-04-14T22:45:20.566Z,35.23
2019-04-14T22:47:51.807Z,35.05
2019-04-14T22:50:23.727Z,35.78
2019-04-14T22:52:55.345Z,33.25
2019-04-14T22:55:26.802Z,29.80
2019-04-14T22:57:58.791Z,35.38
2019-04-14T23:00:50.275Z,31.75
2019-04-14T23:03:42.202Z,32.78
2019-04-14T23:06:29.394Z,32.98
2019-04-14T23:09:32.240Z,32.10
2019-04-14T23:12:18.630Z,34.20
2019-04-14T23:15:11.705Z,33.10
2019-04-14T23:17:51.186Z,33.13
2019-04-14T23:20:29.646Z,30.85
2019-04-14T23:23:19.600Z,33.40
2019-04-14T23:25:51.209Z,27.15
2019-04-14T23:28:23.331Z,28.10
2019-04-14T23:30:54.950Z,29.10
2019-04-14T23:33:25.951Z,29.20
2019-04-14T23:35:57.312Z,32.80
2019-04-14T23:38:28.610Z,32.10
2019-04-14T23:40:59.838Z,31.17
2019-04-14T23:43:31.808Z,27.77
2019-04-14T23:46:02.951Z,27.95
2019-04-14T23:48:34.022Z,31.20
2019-04-14T23:51:05.345Z,30.32
2019-04-14T23:53:36.595Z,27.67
2019-04-14T23:56:08.133Z,29.05
2019-04-14T23:58:39.149Z,32.23
